sensor_id;sensor_type;location;lat;lon;timestamp;P1;durP1;ratioP1;P2;durP2;ratioP2
18574;SDS011;9417;16.484;102.872;2023-05-10T00:01:36;13.52;;;6.53;;
18574;SDS011;9417;16.484;102.872;2023-05-10T00:03:42;10.30;;;6.43;;
18574;SDS011;9417;16.484;102.872;2023-05-10T00:05:50;7.45;;;6.20;;
18574;SDS011;9417;16.484;102.872;2023-05-10T00:07:57;9.77;;;6.28;;
18574;SDS011;9417;16.484;102.872;2023-05-10T00:10:04;9.98;;;6.18;;
18574;SDS011;9417;16.484;102.872;2023-05-10T00:12:12;9.80;;;6.07;;
18574;SDS011;9417;16.484;102.872;2023-05-10T00:14:21;8.30;;;6.28;;
18574;SDS011;9417;16.484;102.872;2023-05-10T00:16:28;8.73;;;5.70;;
18574;SDS011;9417;16.484;102.872;2023-05-10T00:18:35;12.25;;;6.28;;
18574;SDS011;9417;16.484;102.872;2023-05-10T00:20:42;17.65;;;13.68;;
18574;SDS011;9417;16.484;102.872;2023-05-10T00:22:50;10.50;;;8.00;;
18574;SDS011;9417;16.484;102.872;2023-05-10T00:24:57;12.07;;;7.55;;
18574;SDS011;9417;16.484;102.872;2023-05-10T00:27:04;9.65;;;7.55;;
18574;SDS011;9417;16.484;102.872;2023-05-10T00:29:11;10.50;;;7.13;;
18574;SDS011;9417;16.484;102.872;2023-05-10T00:31:20;11.93;;;6.97;;
18574;SDS011;9417;16.484;102.872;2023-05-10T00:33:28;9.43;;;6.78;;
18574;SDS011;9417;16.484;102.872;2023-05-10T00:35:35;11.02;;;6.78;;
18574;SDS011;9417;16.484;102.872;2023-05-10T00:37:42;10.73;;;6.80;;
18574;SDS011;9417;16.484;102.872;2023-05-10T00:39:49;9.40;;;6.57;;
18574;SDS011;9417;16.484;102.872;2023-05-10T00:41:56;8.77;;;6.28;;
18574;SDS011;9417;16.484;102.872;2023-05-10T00:44:03;10.32;;;7.00;;
18574;SDS011;9417;16.484;102.872;2023-05-10T00:46:11;12.95;;;7.28;;
18574;SDS011;9417;16.484;102.872;2023-05-10T00:48:21;13.02;;;9.98;;
18574;SDS011;9417;16.484;102.872;2023-05-10T00:50:29;7.85;;;6.40;;
18574;SDS011;9417;16.484;102.872;2023-05-10T00:52:36;9.52;;;6.05;;
18574;SDS011;9417;16.484;102.872;2023-05-10T00:54:43;7.68;;;5.53;;
18574;SDS011;9417;16.484;102.872;2023-05-10T00:56:51;8.90;;;5.40;;
18574;SDS011;9417;16.484;102.872;2023-05-10T00:58:58;7.78;;;5.75;;
18574;SDS011;9417;16.484;102.872;2023-05-10T01:01:06;7.35;;;5.47;;
18574;SDS011;9417;16.484;102.872;2023-05-10T01:03:14;8.60;;;5.82;;
18574;SDS011;9417;16.484;102.872;2023-05-10T01:05:24;9.50;;;5.97;;
18574;SDS011;9417;16.484;102.872;2023-05-10T01:07:32;10.93;;;5.88;;
18574;SDS011;9417;16.484;102.872;2023-05-10T01:09:39;6.88;;;5.68;;
18574;SDS011;9417;16.484;102.872;2023-05-10T01:11:46;7.35;;;5.68;;
18574;SDS011;9417;16.484;102.872;2023-05-10T01:13:55;9.85;;;5.43;;
18574;SDS011;9417;16.484;102.872;2023-05-10T01:16:03;10.32;;;6.28;;
18574;SDS011;9417;16.484;102.872;2023-05-10T01:18:10;10.10;;;5.82;;
18574;SDS011;9417;16.484;102.872;2023-05-10T01:20:19;8.45;;;5.93;;
18574;SDS011;9417;16.484;102.872;2023-05-10T01:22:34;7.35;;;5.97;;
18574;SDS011;9417;16.484;102.872;2023-05-10T01:25:11;8.70;;;6.13;;
18574;SDS011;9417;16.484;102.872;2023-05-10T01:27:47;8.70;;;6.20;;
18574;SDS011;9417;16.484;102.872;2023-05-10T01:33:19;8.73;;;6.30;;
18574;SDS011;9417;16.484;102.872;2023-05-10T01:35:30;13.05;;;11.85;;
18574;SDS011;9417;16.484;102.872;2023-05-10T01:37:44;11.63;;;9.50;;
18574;SDS011;9417;16.484;102.872;2023-05-10T01:39:58;11.57;;;10.57;;
18574;SDS011;9417;16.484;102.872;2023-05-10T01:42:14;9.27;;;8.38;;
18574;SDS011;9417;16.484;102.872;2023-05-10T01:44:29;8.10;;;5.88;;
18574;SDS011;9417;16.484;102.872;2023-05-10T01:46:41;7.80;;;5.85;;
18574;SDS011;9417;16.484;102.872;2023-05-10T01:48:51;8.35;;;6.10;;
18574;SDS011;9417;16.484;102.872;2023-05-10T01:51:01;10.43;;;6.50;;
18574;SDS011;9417;16.484;102.872;2023-05-10T01:53:10;10.20;;;6.82;;
18574;SDS011;9417;16.484;102.872;2023-05-10T01:55:24;7.63;;;5.97;;
18574;SDS011;9417;16.484;102.872;2023-05-10T01:57:34;8.88;;;6.05;;
18574;SDS011;9417;16.484;102.872;2023-05-10T01:59:43;9.75;;;5.57;;
18574;SDS011;9417;16.484;102.872;2023-05-10T02:01:55;9.35;;;5.53;;
18574;SDS011;9417;16.484;102.872;2023-05-10T02:04:06;5.80;;;5.07;;
18574;SDS011;9417;16.484;102.872;2023-05-10T02:06:15;6.63;;;5.72;;
18574;SDS011;9417;16.484;102.872;2023-05-10T02:08:24;11.18;;;5.55;;
18574;SDS011;9417;16.484;102.872;2023-05-10T02:10:32;7.50;;;5.75;;
18574;SDS011;9417;16.484;102.872;2023-05-10T02:12:40;9.57;;;5.93;;
18574;SDS011;9417;16.484;102.872;2023-05-10T02:14:48;9.02;;;5.90;;
18574;SDS011;9417;16.484;102.872;2023-05-10T02:16:56;7.63;;;6.20;;
18574;SDS011;9417;16.484;102.872;2023-05-10T02:19:07;8.48;;;6.03;;
18574;SDS011;9417;16.484;102.872;2023-05-10T02:21:16;7.70;;;6.07;;
18574;SDS011;9417;16.484;102.872;2023-05-10T02:23:25;10.55;;;6.25;;
18574;SDS011;9417;16.484;102.872;2023-05-10T02:25:33;8.63;;;7.40;;
18574;SDS011;9417;16.484;102.872;2023-05-10T02:27:42;8.82;;;7.10;;
18574;SDS011;9417;16.484;102.872;2023-05-10T02:29:50;10.10;;;7.40;;
18574;SDS011;9417;16.484;102.872;2023-05-10T02:31:58;10.13;;;7.40;;
18574;SDS011;9417;16.484;102.872;2023-05-10T02:34:08;13.88;;;7.38;;
18574;SDS011;9417;16.484;102.872;2023-05-10T02:36:15;8.80;;;7.07;;
18574;SDS011;9417;16.484;102.872;2023-05-10T02:38:24;8.68;;;7.60;;
18574;SDS011;9417;16.484;102.872;2023-05-10T02:40:32;17.70;;;16.30;;
18574;SDS011;9417;16.484;102.872;2023-05-10T02:42:41;18.48;;;16.88;;
18574;SDS011;9417;16.484;102.872;2023-05-10T02:44:50;17.30;;;15.90;;
18574;SDS011;9417;16.484;102.872;2023-05-10T02:46:59;19.05;;;17.33;;
18574;SDS011;9417;16.484;102.872;2023-05-10T02:49:06;9.10;;;7.60;;
18574;SDS011;9417;16.484;102.872;2023-05-10T02:51:15;9.95;;;7.07;;
18574;SDS011;9417;16.484;102.872;2023-05-10T02:53:27;9.60;;;7.45;;
18574;SDS011;9417;16.484;102.872;2023-05-10T02:55:37;10.63;;;7.68;;
18574;SDS011;9417;16.484;102.872;2023-05-10T02:57:48;9.90;;;7.07;;
18574;SDS011;9417;16.484;102.872;2023-05-10T02:59:57;9.55;;;7.45;;
18574;SDS011;9417;16.484;102.872;2023-05-10T03:02:04;8.95;;;7.40;;
18574;SDS011;9417;16.484;102.872;2023-05-10T03:04:13;8.40;;;7.25;;
18574;SDS011;9417;16.484;102.872;2023-05-10T03:06:21;9.65;;;7.82;;
18574;SDS011;9417;16.484;102.872;2023-05-10T03:08:28;9.10;;;7.63;;
18574;SDS011;9417;16.484;102.872;2023-05-10T03:10:38;8.95;;;7.20;;
18574;SDS011;9417;16.484;102.872;2023-05-10T03:12:57;9.50;;;7.50;;
18574;SDS011;9417;16.484;102.872;2023-05-10T03:15:15;12.85;;;7.75;;
18574;SDS011;9417;16.484;102.872;2023-05-10T03:17:30;7.88;;;7.00;;
18574;SDS011;9417;16.484;102.872;2023-05-10T03:19:46;8.15;;;7.32;;
18574;SDS011;9417;16.484;102.872;2023-05-10T03:21:59;9.18;;;8.02;;
18574;SDS011;9417;16.484;102.872;2023-05-10T03:24:11;8.20;;;7.07;;
18574;SDS011;9417;16.484;102.872;2023-05-10T03:26:23;8.23;;;7.43;;
18574;SDS011;9417;16.484;102.872;2023-05-10T03:28:42;9.43;;;7.53;;
18574;SDS011;9417;16.484;102.872;2023-05-10T03:30:49;8.70;;;7.07;;
18574;SDS011;9417;16.484;102.872;2023-05-10T03:33:04;10.90;;;7.00;;
18574;SDS011;9417;16.484;102.872;2023-05-10T03:35:16;7.78;;;6.43;;
18574;SDS011;9417;16.484;102.872;2023-05-10T03:37:24;9.15;;;7.05;;
18574;SDS011;9417;16.484;102.872;2023-05-10T03:39:31;8.70;;;6.35;;
18574;SDS011;9417;16.484;102.872;2023-05-10T03:41:41;6.63;;;5.93;;
18574;SDS011;9417;16.484;102.872;2023-05-10T03:43:48;8.07;;;6.78;;
18574;SDS011;9417;16.484;102.872;2023-05-10T03:45:55;7.53;;;6.45;;
18574;SDS011;9417;16.484;102.872;2023-05-10T03:48:03;8.23;;;6.35;;
18574;SDS011;9417;16.484;102.872;2023-05-10T03:50:10;10.10;;;6.60;;
18574;SDS011;9417;16.484;102.872;2023-05-10T03:52:19;9.27;;;7.45;;
18574;SDS011;9417;16.484;102.872;2023-05-10T03:54:26;9.65;;;7.50;;
18574;SDS011;9417;16.484;102.872;2023-05-10T03:56:33;8.70;;;6.63;;
18574;SDS011;9417;16.484;102.872;2023-05-10T03:58:41;8.73;;;6.70;;
18574;SDS011;9417;16.484;102.872;2023-05-10T04:00:48;8.57;;;6.88;;
18574;SDS011;9417;16.484;102.872;2023-05-10T04:02:56;9.00;;;7.28;;
18574;SDS011;9417;16.484;102.872;2023-05-10T04:05:03;8.68;;;6.72;;
18574;SDS011;9417;16.484;102.872;2023-05-10T04:07:11;7.78;;;6.97;;
18574;SDS011;9417;16.484;102.872;2023-05-10T04:09:20;8.55;;;7.03;;
18574;SDS011;9417;16.484;102.872;2023-05-10T04:11:27;8.13;;;7.15;;
18574;SDS011;9417;16.484;102.872;2023-05-10T04:13:34;8.57;;;6.57;;
18574;SDS011;9417;16.484;102.872;2023-05-10T04:15:41;8.15;;;6.93;;
18574;SDS011;9417;16.484;102.872;2023-05-10T04:17:48;8.13;;;6.80;;
18574;SDS011;9417;16.484;102.872;2023-05-10T04:19:55;10.93;;;7.68;;
18574;SDS011;9417;16.484;102.872;2023-05-10T04:22:02;9.85;;;7.20;;
18574;SDS011;9417;16.484;102.872;2023-05-10T04:24:10;8.57;;;7.00;;
18574;SDS011;9417;16.484;102.872;2023-05-10T04:26:18;10.48;;;7.10;;
18574;SDS011;9417;16.484;102.872;2023-05-10T04:28:26;8.48;;;7.20;;
18574;SDS011;9417;16.484;102.872;2023-05-10T04:30:32;8.15;;;7.22;;
18574;SDS011;9417;16.484;102.872;2023-05-10T04:32:40;7.80;;;6.78;;
18574;SDS011;9417;16.484;102.872;2023-05-10T04:34:47;8.40;;;7.43;;
18574;SDS011;9417;16.484;102.872;2023-05-10T04:36:54;8.07;;;7.13;;
18574;SDS011;9417;16.484;102.872;2023-05-10T04:39:01;9.25;;;7.70;;
18574;SDS011;9417;16.484;102.872;2023-05-10T04:41:09;11.95;;;7.40;;
18574;SDS011;9417;16.484;102.872;2023-05-10T04:43:18;9.65;;;7.93;;
18574;SDS011;9417;16.484;102.872;2023-05-10T04:45:25;8.98;;;7.57;;
18574;SDS011;9417;16.484;102.872;2023-05-10T04:47:32;9.40;;;8.18;;
18574;SDS011;9417;16.484;102.872;2023-05-10T04:49:40;8.27;;;7.47;;
18574;SDS011;9417;16.484;102.872;2023-05-10T04:51:47;9.57;;;7.88;;
18574;SDS011;9417;16.484;102.872;2023-05-10T04:53:54;10.15;;;7.95;;
18574;SDS011;9417;16.484;102.872;2023-05-10T04:56:08;11.05;;;8.07;;
18574;SDS011;9417;16.484;102.872;2023-05-10T04:58:15;10.27;;;8.85;;
18574;SDS011;9417;16.484;102.872;2023-05-10T05:00:24;10.82;;;8.00;;
18574;SDS011;9417;16.484;102.872;2023-05-10T05:02:31;9.48;;;7.82;;
18574;SDS011;9417;16.484;102.872;2023-05-10T05:04:38;8.95;;;7.95;;
18574;SDS011;9417;16.484;102.872;2023-05-10T05:06:45;12.45;;;8.93;;
18574;SDS011;9417;16.484;102.872;2023-05-10T05:08:55;10.68;;;8.70;;
18574;SDS011;9417;16.484;102.872;2023-05-10T05:11:02;10.30;;;8.82;;
18574;SDS011;9417;16.484;102.872;2023-05-10T05:13:09;11.23;;;8.82;;
18574;SDS011;9417;16.484;102.872;2023-05-10T05:15:19;9.55;;;8.10;;
18574;SDS011;9417;16.484;102.872;2023-05-10T05:17:27;10.15;;;8.68;;
18574;SDS011;9417;16.484;102.872;2023-05-10T05:19:35;10.88;;;9.07;;
18574;SDS011;9417;16.484;102.872;2023-05-10T05:21:42;10.50;;;8.93;;
18574;SDS011;9417;16.484;102.872;2023-05-10T05:23:49;10.73;;;9.05;;
18574;SDS011;9417;16.484;102.872;2023-05-10T05:25:56;10.50;;;8.55;;
18574;SDS011;9417;16.484;102.872;2023-05-10T05:28:03;11.65;;;9.73;;
18574;SDS011;9417;16.484;102.872;2023-05-10T05:30:11;9.95;;;8.95;;
18574;SDS011;9417;16.484;102.872;2023-05-10T05:32:20;12.90;;;9.93;;
18574;SDS011;9417;16.484;102.872;2023-05-10T05:34:27;11.50;;;10.07;;
18574;SDS011;9417;16.484;102.872;2023-05-10T05:36:35;11.30;;;9.40;;
18574;SDS011;9417;16.484;102.872;2023-05-10T05:38:43;11.05;;;9.77;;
18574;SDS011;9417;16.484;102.872;2023-05-10T05:40:50;11.60;;;9.40;;
18574;SDS011;9417;16.484;102.872;2023-05-10T05:42:57;11.50;;;9.40;;
18574;SDS011;9417;16.484;102.872;2023-05-10T05:45:04;11.20;;;10.02;;
18574;SDS011;9417;16.484;102.872;2023-05-10T05:47:12;13.95;;;9.95;;
18574;SDS011;9417;16.484;102.872;2023-05-10T05:49:21;11.52;;;9.95;;
18574;SDS011;9417;16.484;102.872;2023-05-10T05:51:28;10.50;;;9.35;;
18574;SDS011;9417;16.484;102.872;2023-05-10T05:53:36;13.35;;;10.43;;
18574;SDS011;9417;16.484;102.872;2023-05-10T05:55:50;11.25;;;9.60;;
18574;SDS011;9417;16.484;102.872;2023-05-10T05:57:58;13.80;;;10.07;;
18574;SDS011;9417;16.484;102.872;2023-05-10T06:00:06;12.70;;;10.10;;
18574;SDS011;9417;16.484;102.872;2023-05-10T06:02:16;10.23;;;9.05;;
18574;SDS011;9417;16.484;102.872;2023-05-10T06:04:25;13.07;;;9.75;;
18574;SDS011;9417;16.484;102.872;2023-05-10T06:06:32;11.57;;;9.65;;
18574;SDS011;9417;16.484;102.872;2023-05-10T06:08:39;12.10;;;9.57;;
18574;SDS011;9417;16.484;102.872;2023-05-10T06:10:46;13.70;;;10.00;;
18574;SDS011;9417;16.484;102.872;2023-05-10T06:12:54;9.75;;;8.75;;
18574;SDS011;9417;16.484;102.872;2023-05-10T06:15:00;9.70;;;8.70;;
18574;SDS011;9417;16.484;102.872;2023-05-10T06:17:08;10.93;;;8.52;;
18574;SDS011;9417;16.484;102.872;2023-05-10T06:19:15;9.68;;;8.70;;
18574;SDS011;9417;16.484;102.872;2023-05-10T06:21:24;11.60;;;8.82;;
18574;SDS011;9417;16.484;102.872;2023-05-10T06:23:31;9.73;;;8.27;;
18574;SDS011;9417;16.484;102.872;2023-05-10T06:25:38;11.35;;;9.20;;
18574;SDS011;9417;16.484;102.872;2023-05-10T06:27:45;10.48;;;9.25;;
18574;SDS011;9417;16.484;102.872;2023-05-10T06:29:55;11.25;;;8.35;;
18574;SDS011;9417;16.484;102.872;2023-05-10T06:32:14;11.57;;;8.43;;
18574;SDS011;9417;16.484;102.872;2023-05-10T06:34:21;9.60;;;8.48;;
18574;SDS011;9417;16.484;102.872;2023-05-10T06:36:30;8.95;;;8.02;;
18574;SDS011;9417;16.484;102.872;2023-05-10T06:38:37;9.93;;;8.15;;
18574;SDS011;9417;16.484;102.872;2023-05-10T06:40:44;10.80;;;9.05;;
18574;SDS011;9417;16.484;102.872;2023-05-10T06:42:51;10.13;;;9.02;;
18574;SDS011;9417;16.484;102.872;2023-05-10T06:44:58;10.50;;;8.38;;
18574;SDS011;9417;16.484;102.872;2023-05-10T06:47:05;11.73;;;9.18;;
18574;SDS011;9417;16.484;102.872;2023-05-10T06:49:12;10.27;;;9.10;;
18574;SDS011;9417;16.484;102.872;2023-05-10T06:51:19;10.38;;;9.35;;
18574;SDS011;9417;16.484;102.872;2023-05-10T06:53:28;10.85;;;8.98;;
18574;SDS011;9417;16.484;102.872;2023-05-10T06:55:35;11.18;;;8.80;;
18574;SDS011;9417;16.484;102.872;2023-05-10T06:57:42;11.48;;;9.43;;
18574;SDS011;9417;16.484;102.872;2023-05-10T06:59:50;9.68;;;8.68;;
18574;SDS011;9417;16.484;102.872;2023-05-10T07:02:02;9.68;;;8.68;;
18574;SDS011;9417;16.484;102.872;2023-05-10T07:04:09;10.70;;;9.32;;
18574;SDS011;9417;16.484;102.872;2023-05-10T07:06:17;10.10;;;9.05;;
18574;SDS011;9417;16.484;102.872;2023-05-10T07:08:37;10.80;;;9.02;;
18574;SDS011;9417;16.484;102.872;2023-05-10T07:10:44;11.27;;;10.15;;
18574;SDS011;9417;16.484;102.872;2023-05-10T07:12:51;10.77;;;9.52;;
18574;SDS011;9417;16.484;102.872;2023-05-10T07:15:01;11.50;;;9.88;;
18574;SDS011;9417;16.484;102.872;2023-05-10T07:17:08;11.13;;;9.82;;
18574;SDS011;9417;16.484;102.872;2023-05-10T07:19:15;12.38;;;10.15;;
18574;SDS011;9417;16.484;102.872;2023-05-10T07:21:23;10.88;;;9.77;;
18574;SDS011;9417;16.484;102.872;2023-05-10T07:23:31;10.48;;;9.27;;
18574;SDS011;9417;16.484;102.872;2023-05-10T07:25:40;11.15;;;10.05;;
18574;SDS011;9417;16.484;102.872;2023-05-10T07:27:49;11.85;;;9.90;;
18574;SDS011;9417;16.484;102.872;2023-05-10T07:29:57;11.18;;;9.23;;
18574;SDS011;9417;16.484;102.872;2023-05-10T07:32:04;11.25;;;9.95;;
18574;SDS011;9417;16.484;102.872;2023-05-10T07:34:11;10.77;;;9.68;;
18574;SDS011;9417;16.484;102.872;2023-05-10T07:36:18;11.82;;;9.93;;
18574;SDS011;9417;16.484;102.872;2023-05-10T07:38:25;11.35;;;10.25;;
18574;SDS011;9417;16.484;102.872;2023-05-10T07:40:32;12.25;;;10.20;;
18574;SDS011;9417;16.484;102.872;2023-05-10T07:42:41;12.85;;;9.85;;
18574;SDS011;9417;16.484;102.872;2023-05-10T07:44:48;11.48;;;10.27;;
18574;SDS011;9417;16.484;102.872;2023-05-10T07:46:55;11.55;;;10.45;;
18574;SDS011;9417;16.484;102.872;2023-05-10T07:49:02;12.10;;;10.77;;
18574;SDS011;9417;16.484;102.872;2023-05-10T07:51:09;12.07;;;10.38;;
18574;SDS011;9417;16.484;102.872;2023-05-10T07:53:17;10.93;;;9.88;;
18574;SDS011;9417;16.484;102.872;2023-05-10T07:55:24;11.43;;;10.23;;
18574;SDS011;9417;16.484;102.872;2023-05-10T07:57:31;12.38;;;10.50;;
18574;SDS011;9417;16.484;102.872;2023-05-10T07:59:40;12.30;;;11.10;;
18574;SDS011;9417;16.484;102.872;2023-05-10T08:01:47;13.70;;;10.95;;
18574;SDS011;9417;16.484;102.872;2023-05-10T08:03:55;11.65;;;10.48;;
18574;SDS011;9417;16.484;102.872;2023-05-10T08:06:02;13.35;;;11.40;;
18574;SDS011;9417;16.484;102.872;2023-05-10T08:08:09;11.40;;;10.23;;
18574;SDS011;9417;16.484;102.872;2023-05-10T08:10:16;11.25;;;10.15;;
18574;SDS011;9417;16.484;102.872;2023-05-10T08:12:23;11.50;;;10.40;;
18574;SDS011;9417;16.484;102.872;2023-05-10T08:14:30;11.70;;;10.50;;
18574;SDS011;9417;16.484;102.872;2023-05-10T08:16:39;12.23;;;11.00;;
18574;SDS011;9417;16.484;102.872;2023-05-10T08:18:46;12.45;;;11.23;;
18574;SDS011;9417;16.484;102.872;2023-05-10T08:20:54;13.48;;;12.02;;
18574;SDS011;9417;16.484;102.872;2023-05-10T08:23:01;13.25;;;11.18;;
18574;SDS011;9417;16.484;102.872;2023-05-10T08:25:08;16.80;;;10.10;;
18574;SDS011;9417;16.484;102.872;2023-05-10T08:27:15;13.82;;;11.20;;
18574;SDS011;9417;16.484;102.872;2023-05-10T08:29:22;12.23;;;10.98;;
18574;SDS011;9417;16.484;102.872;2023-05-10T08:31:31;12.90;;;11.43;;
18574;SDS011;9417;16.484;102.872;2023-05-10T08:33:40;12.70;;;11.50;;
18574;SDS011;9417;16.484;102.872;2023-05-10T08:35:47;14.40;;;11.27;;
18574;SDS011;9417;16.484;102.872;2023-05-10T08:37:54;12.23;;;10.93;;
18574;SDS011;9417;16.484;102.872;2023-05-10T08:40:01;14.40;;;11.32;;
18574;SDS011;9417;16.484;102.872;2023-05-10T08:42:08;13.77;;;11.25;;
18574;SDS011;9417;16.484;102.872;2023-05-10T08:44:15;11.88;;;10.68;;
18574;SDS011;9417;16.484;102.872;2023-05-10T08:46:24;12.35;;;11.15;;
18574;SDS011;9417;16.484;102.872;2023-05-10T08:48:34;11.80;;;10.60;;
18574;SDS011;9417;16.484;102.872;2023-05-10T08:50:44;12.10;;;10.40;;
18574;SDS011;9417;16.484;102.872;2023-05-10T08:52:52;11.82;;;10.63;;
18574;SDS011;9417;16.484;102.872;2023-05-10T08:55:01;13.15;;;10.82;;
18574;SDS011;9417;16.484;102.872;2023-05-10T08:57:08;11.65;;;10.45;;
18574;SDS011;9417;16.484;102.872;2023-05-10T08:59:15;15.35;;;11.02;;
18574;SDS011;9417;16.484;102.872;2023-05-10T09:01:22;12.20;;;10.70;;
18574;SDS011;9417;16.484;102.872;2023-05-10T09:03:31;11.65;;;10.45;;
18574;SDS011;9417;16.484;102.872;2023-05-10T09:05:38;13.13;;;11.30;;
18574;SDS011;9417;16.484;102.872;2023-05-10T09:07:47;12.48;;;10.65;;
18574;SDS011;9417;16.484;102.872;2023-05-10T09:09:54;13.05;;;10.60;;
18574;SDS011;9417;16.484;102.872;2023-05-10T09:12:02;15.48;;;11.27;;
18574;SDS011;9417;16.484;102.872;2023-05-10T09:14:09;13.63;;;11.80;;
18574;SDS011;9417;16.484;102.872;2023-05-10T09:16:18;13.35;;;11.30;;
18574;SDS011;9417;16.484;102.872;2023-05-10T09:18:25;11.75;;;10.50;;
18574;SDS011;9417;16.484;102.872;2023-05-10T09:20:32;13.93;;;11.45;;
18574;SDS011;9417;16.484;102.872;2023-05-10T09:22:55;15.48;;;14.18;;
18574;SDS011;9417;16.484;102.872;2023-05-10T09:25:15;13.75;;;10.25;;
18574;SDS011;9417;16.484;102.872;2023-05-10T09:27:26;13.43;;;9.70;;
18574;SDS011;9417;16.484;102.872;2023-05-10T09:29:39;12.82;;;11.02;;
18574;SDS011;9417;16.484;102.872;2023-05-10T09:31:46;13.52;;;10.88;;
18574;SDS011;9417;16.484;102.872;2023-05-10T09:34:15;13.98;;;10.45;;
18574;SDS011;9417;16.484;102.872;2023-05-10T09:36:49;12.75;;;9.80;;
18574;SDS011;9417;16.484;102.872;2023-05-10T09:38:59;11.80;;;9.88;;
18574;SDS011;9417;16.484;102.872;2023-05-10T09:41:14;10.77;;;9.68;;
18574;SDS011;9417;16.484;102.872;2023-05-10T09:43:22;12.93;;;10.20;;
18574;SDS011;9417;16.484;102.872;2023-05-10T09:45:31;11.50;;;10.32;;
18574;SDS011;9417;16.484;102.872;2023-05-10T09:47:45;14.77;;;10.75;;
18574;SDS011;9417;16.484;102.872;2023-05-10T09:49:52;14.57;;;10.18;;
18574;SDS011;9417;16.484;102.872;2023-05-10T09:52:02;12.77;;;10.80;;
18574;SDS011;9417;16.484;102.872;2023-05-10T09:54:16;11.57;;;9.77;;
18574;SDS011;9417;16.484;102.872;2023-05-10T09:56:37;12.50;;;10.13;;
18574;SDS011;9417;16.484;102.872;2023-05-10T09:59:02;12.30;;;10.98;;
18574;SDS011;9417;16.484;102.872;2023-05-10T10:01:10;14.07;;;11.40;;
18574;SDS011;9417;16.484;102.872;2023-05-10T10:03:18;14.82;;;11.13;;
18574;SDS011;9417;16.484;102.872;2023-05-10T10:05:29;13.20;;;10.65;;
18574;SDS011;9417;16.484;102.872;2023-05-10T10:07:53;11.70;;;10.30;;
18574;SDS011;9417;16.484;102.872;2023-05-10T10:10:19;12.18;;;10.30;;
18574;SDS011;9417;16.484;102.872;2023-05-10T10:12:26;15.25;;;10.68;;
18574;SDS011;9417;16.484;102.872;2023-05-10T10:14:34;16.50;;;10.95;;
18574;SDS011;9417;16.484;102.872;2023-05-10T10:16:41;12.70;;;10.23;;
18574;SDS011;9417;16.484;102.872;2023-05-10T10:19:10;14.93;;;10.70;;
18574;SDS011;9417;16.484;102.872;2023-05-10T10:21:30;15.88;;;10.95;;
18574;SDS011;9417;16.484;102.872;2023-05-10T10:23:42;12.18;;;10.82;;
18574;SDS011;9417;16.484;102.872;2023-05-10T10:25:51;14.43;;;10.68;;
18574;SDS011;9417;16.484;102.872;2023-05-10T10:28:19;14.82;;;11.32;;
18574;SDS011;9417;16.484;102.872;2023-05-10T10:30:49;17.65;;;11.25;;
18574;SDS011;9417;16.484;102.872;2023-05-10T10:33:09;12.82;;;9.50;;
18574;SDS011;9417;16.484;102.872;2023-05-10T10:35:33;18.38;;;9.65;;
18574;SDS011;9417;16.484;102.872;2023-05-10T10:37:43;15.27;;;9.30;;
18574;SDS011;9417;16.484;102.872;2023-05-10T10:39:51;14.55;;;8.85;;
18574;SDS011;9417;16.484;102.872;2023-05-10T10:42:02;12.57;;;9.45;;
18574;SDS011;9417;16.484;102.872;2023-05-10T10:47:07;10.70;;;8.05;;
18574;SDS011;9417;16.484;102.872;2023-05-10T10:49:37;11.82;;;7.75;;
18574;SDS011;9417;16.484;102.872;2023-05-10T10:52:20;10.45;;;7.28;;
18574;SDS011;9417;16.484;102.872;2023-05-10T10:54:35;8.88;;;7.90;;
18574;SDS011;9417;16.484;102.872;2023-05-10T10:56:42;11.23;;;7.60;;
18574;SDS011;9417;16.484;102.872;2023-05-10T10:59:12;10.13;;;7.35;;
18574;SDS011;9417;16.484;102.872;2023-05-10T11:01:33;10.18;;;7.78;;
18574;SDS011;9417;16.484;102.872;2023-05-10T11:06:31;14.95;;;8.63;;
18574;SDS011;9417;16.484;102.872;2023-05-10T11:08:43;10.77;;;8.30;;
18574;SDS011;9417;16.484;102.872;2023-05-10T11:11:02;12.52;;;8.07;;
18574;SDS011;9417;16.484;102.872;2023-05-10T11:13:10;12.30;;;9.38;;
18574;SDS011;9417;16.484;102.872;2023-05-10T11:15:19;12.82;;;8.48;;
18574;SDS011;9417;16.484;102.872;2023-05-10T11:17:38;12.07;;;9.18;;
18574;SDS011;9417;16.484;102.872;2023-05-10T11:20:07;14.18;;;8.80;;
18574;SDS011;9417;16.484;102.872;2023-05-10T11:22:20;16.15;;;9.50;;
18574;SDS011;9417;16.484;102.872;2023-05-10T11:24:33;14.68;;;9.15;;
18574;SDS011;9417;16.484;102.872;2023-05-10T11:26:40;14.75;;;9.55;;
18574;SDS011;9417;16.484;102.872;2023-05-10T11:28:48;13.30;;;9.43;;
18574;SDS011;9417;16.484;102.872;2023-05-10T11:30:57;12.25;;;9.18;;
18574;SDS011;9417;16.484;102.872;2023-05-10T11:33:05;14.30;;;9.10;;
18574;SDS011;9417;16.484;102.872;2023-05-10T11:35:12;11.68;;;9.65;;
18574;SDS011;9417;16.484;102.872;2023-05-10T11:37:20;15.40;;;10.10;;
18574;SDS011;9417;16.484;102.872;2023-05-10T11:39:45;14.43;;;10.07;;
18574;SDS011;9417;16.484;102.872;2023-05-10T11:42:05;13.73;;;10.25;;
18574;SDS011;9417;16.484;102.872;2023-05-10T11:44:12;12.90;;;9.82;;
18574;SDS011;9417;16.484;102.872;2023-05-10T11:46:22;14.13;;;10.07;;
18574;SDS011;9417;16.484;102.872;2023-05-10T11:50:38;15.27;;;10.27;;
18574;SDS011;9417;16.484;102.872;2023-05-10T11:52:44;14.43;;;9.43;;
18574;SDS011;9417;16.484;102.872;2023-05-10T11:54:55;14.25;;;9.63;;
18574;SDS011;9417;16.484;102.872;2023-05-10T11:57:03;15.23;;;10.30;;
18574;SDS011;9417;16.484;102.872;2023-05-10T11:59:13;14.02;;;9.77;;
18574;SDS011;9417;16.484;102.872;2023-05-10T12:01:23;13.93;;;10.40;;
18574;SDS011;9417;16.484;102.872;2023-05-10T12:03:30;13.15;;;11.23;;
18574;SDS011;9417;16.484;102.872;2023-05-10T12:05:40;15.35;;;10.50;;
18574;SDS011;9417;16.484;102.872;2023-05-10T12:07:47;16.58;;;9.90;;
18574;SDS011;9417;16.484;102.872;2023-05-10T12:10:07;16.70;;;10.77;;
18574;SDS011;9417;16.484;102.872;2023-05-10T12:12:18;16.10;;;10.38;;
18574;SDS011;9417;16.484;102.872;2023-05-10T12:14:41;16.60;;;10.60;;
18574;SDS011;9417;16.484;102.872;2023-05-10T12:16:58;15.05;;;10.00;;
18574;SDS011;9417;16.484;102.872;2023-05-10T12:19:05;16.00;;;10.48;;
18574;SDS011;9417;16.484;102.872;2023-05-10T12:21:13;16.40;;;10.38;;
18574;SDS011;9417;16.484;102.872;2023-05-10T12:23:20;15.30;;;10.18;;
18574;SDS011;9417;16.484;102.872;2023-05-10T12:25:40;15.68;;;9.48;;
18574;SDS011;9417;16.484;102.872;2023-05-10T12:28:02;19.27;;;9.90;;
18574;SDS011;9417;16.484;102.872;2023-05-10T12:30:11;16.73;;;10.85;;
18574;SDS011;9417;16.484;102.872;2023-05-10T12:32:20;11.02;;;9.15;;
18574;SDS011;9417;16.484;102.872;2023-05-10T12:34:42;14.05;;;9.63;;
18574;SDS011;9417;16.484;102.872;2023-05-10T12:36:52;13.05;;;9.40;;
18574;SDS011;9417;16.484;102.872;2023-05-10T12:39:13;12.73;;;9.27;;
18574;SDS011;9417;16.484;102.872;2023-05-10T12:41:20;12.27;;;9.52;;
18574;SDS011;9417;16.484;102.872;2023-05-10T12:43:28;14.27;;;9.00;;
18574;SDS011;9417;16.484;102.872;2023-05-10T12:45:38;14.88;;;9.80;;
18574;SDS011;9417;16.484;102.872;2023-05-10T12:48:03;18.35;;;10.35;;
18574;SDS011;9417;16.484;102.872;2023-05-10T12:50:38;14.55;;;9.63;;
18574;SDS011;9417;16.484;102.872;2023-05-10T12:52:54;12.60;;;9.48;;